KNUW/NUW METAR and TAF weather

Enter ICAO airport designator
Station Type Date Time Source
KNUW METAR 2019/02/16 07:56 UTC NOAA

KNUW 160756Z 13004KT 10SM CLR 03/00 A2976 RMK AO2 SLP076 T00330000 401060033 $


Station Type Date Time Source
KNUW Decoded METAR 2019/02/16 07:56 UTC NOAA

NAS WHIDBEY ISLAND, WA, United States (KNUW) 48-21N 122-39W 8M
Feb 16, 2019 - 02:56 AM EST / 2019.02.16 0756 UTC
Wind: from the SE (130 degrees) at 5 MPH (4 KT):0
Visibility: 10 mile(s):0
Sky conditions: clear
Temperature: 37.9 F (3.3 C)
Dew Point: 32.0 F (0.0 C)
Relative Humidity: 78%
Pressure (altimeter): 29.76 in. Hg (1007 hPa)
ob: KNUW 160756Z 13004KT 10SM CLR 03/00 A2976 RMK AO2 SLP076 T00330000 401060033
cycle: 8

Station Type Date Time Source
KNUW TAF 2019/02/16 07:09 UTC NOAA

TAF KNUW 1607/1707 11007KT 9999 BKN050 OVC120 640207 QNH2970INS
FM161600 VRB06KT 9999 SCT010 BKN025 OVC050 640209 QNH2979INS
TEMPO 1620/1702 11008KT 9000 -SHRA BR BKN010 OVC025
FM170500 16010KT 9999 BKN025 640205 QNH2988INS T02/1612Z T06/1623Z FS30024


Example: see airport list